createdAt,value
2023-01-11T00:00:56.687Z,92.01
2023-01-11T00:03:09.465Z,91.83
2023-01-11T00:05:22.047Z,91.72
2023-01-11T00:07:34.632Z,91.47
2023-01-11T00:09:47.849Z,91.45
2023-01-11T00:12:00.433Z,91.31
2023-01-11T00:14:14.636Z,91.27
2023-01-11T00:16:27.218Z,91.03
2023-01-11T00:18:40.982Z,90.92
2023-01-11T00:20:53.587Z,90.84
2023-01-11T00:23:06.111Z,90.63
2023-01-11T00:25:18.701Z,90.63
2023-01-11T00:27:31.383Z,90.45
2023-01-11T00:29:44.908Z,90.47
2023-01-11T00:31:57.529Z,90.44
2023-01-11T00:34:10.143Z,90.35
2023-01-11T00:36:22.725Z,90.46
2023-01-11T00:38:46.462Z,90.27
2023-01-11T00:41:18.973Z,90.49
2023-01-11T00:43:49.971Z,90.43
2023-01-11T00:46:21.027Z,90.19
2023-01-11T00:48:33.599Z,90.41
2023-01-11T00:50:46.148Z,90.40
2023-01-11T00:52:59.674Z,90.29
2023-01-11T00:55:12.233Z,90.20
2023-01-11T00:57:24.860Z,90.32
2023-01-11T00:59:39.455Z,90.32
2023-01-11T01:01:52.198Z,90.24
2023-01-11T01:04:05.171Z,90.07
2023-01-11T01:06:17.939Z,90.00
2023-01-11T01:08:30.588Z,90.21
2023-01-11T01:10:43.083Z,90.16
2023-01-11T01:13:14.256Z,89.96
2023-01-11T01:15:27.252Z,89.88
2023-01-11T01:17:39.773Z,89.73
2023-01-11T01:19:52.364Z,89.86
2023-01-11T01:22:05.326Z,89.86
2023-01-11T01:24:19.300Z,89.72
2023-01-11T01:26:31.972Z,89.41
2023-01-11T01:28:44.743Z,89.51
2023-01-11T01:30:57.448Z,89.44
2023-01-11T01:33:09.965Z,89.30
2023-01-11T01:35:22.643Z,89.15
2023-01-11T01:37:35.236Z,89.15
2023-01-11T01:39:47.804Z,88.98
2023-01-11T01:42:00.465Z,89.21
2023-01-11T01:44:50.526Z,89.04
2023-01-11T01:47:03.973Z,89.01
2023-01-11T01:49:16.981Z,89.04
2023-01-11T01:51:38.755Z,89.14
2023-01-11T01:53:57.267Z,88.89
2023-01-11T01:56:15.665Z,88.93
2023-01-11T01:58:36.555Z,89.14
2023-01-11T02:00:49.096Z,88.97
2023-01-11T02:03:02.343Z,88.82
2023-01-11T02:05:17.336Z,88.67
2023-01-11T02:07:33.827Z,88.38
2023-01-11T02:10:09.445Z,88.55
2023-01-11T02:12:24.572Z,88.22
2023-01-11T02:14:38.758Z,88.28
2023-01-11T02:16:51.387Z,87.97
2023-01-11T02:19:05.597Z,87.81
2023-01-11T02:21:53.558Z,87.78
2023-01-11T02:24:55.353Z,87.68
2023-01-11T02:27:21.729Z,87.52
2023-01-11T02:29:49.392Z,87.50
2023-01-11T02:32:20.450Z,87.74
2023-01-11T02:34:41.782Z,87.56
2023-01-11T02:37:14.843Z,87.37
2023-01-11T02:39:42.259Z,87.20
2023-01-11T02:42:22.981Z,87.14
2023-01-11T02:45:19.165Z,87.37
2023-01-11T02:47:39.707Z,87.24
2023-01-11T02:50:06.924Z,87.10
2023-01-11T02:52:31.828Z,86.85
2023-01-11T02:54:47.848Z,87.18
2023-01-11T02:57:02.633Z,87.27
2023-01-11T02:59:22.677Z,87.21
2023-01-11T03:01:55.518Z,87.20
2023-01-11T03:04:26.307Z,87.10
2023-01-11T03:06:38.900Z,87.28
2023-01-11T03:09:28.662Z,87.42
2023-01-11T03:12:09.214Z,87.31
2023-01-11T03:14:27.737Z,87.28
2023-01-11T03:16:50.740Z,87.48
2023-01-11T03:19:21.897Z,87.68
2023-01-11T03:21:47.082Z,87.39
2023-01-11T03:24:33.890Z,87.34
2023-01-11T03:27:13.342Z,87.64
2023-01-11T03:29:31.246Z,87.82
2023-01-11T03:31:58.507Z,88.04
2023-01-11T03:34:29.438Z,87.99
2023-01-11T03:36:59.871Z,88.04
2023-01-11T03:39:24.972Z,88.24
2023-01-11T03:41:40.811Z,88.59
2023-01-11T03:43:57.126Z,88.64
2023-01-11T03:46:14.796Z,88.87
2023-01-11T03:48:31.047Z,89.17
2023-01-11T03:50:46.051Z,89.34
2023-01-11T03:53:00.867Z,89.44
2023-01-11T03:55:16.577Z,89.51
2023-01-11T03:57:39.576Z,89.59
2023-01-11T03:59:52.166Z,89.71
2023-01-11T04:02:05.027Z,90.05
2023-01-11T04:04:17.708Z,90.17
2023-01-11T04:06:34.223Z,90.54
2023-01-11T04:08:46.769Z,90.52
2023-01-11T04:10:59.576Z,90.70
2023-01-11T04:13:12.334Z,90.87
2023-01-11T04:15:24.815Z,90.85
2023-01-11T04:17:37.416Z,91.18
2023-01-11T04:19:50.001Z,91.52
2023-01-11T04:22:02.551Z,91.74
2023-01-11T04:24:15.257Z,91.85
2023-01-11T04:26:27.731Z,91.83
2023-01-11T04:28:40.309Z,91.93
2023-01-11T04:30:53.544Z,92.32
2023-01-11T04:33:06.134Z,92.00
2023-01-11T04:35:18.882Z,92.25
2023-01-11T04:37:31.427Z,92.44
2023-01-11T04:39:43.977Z,92.71
2023-01-11T04:42:15.108Z,92.48
2023-01-11T04:44:27.598Z,92.49
2023-01-11T04:46:40.154Z,92.87
2023-01-11T04:48:52.877Z,93.09
2023-01-11T04:51:09.802Z,93.03
2023-01-11T04:53:22.299Z,92.96
2023-01-11T04:55:36.329Z,93.06
2023-01-11T04:57:48.928Z,93.05
2023-01-11T05:00:01.655Z,92.89
2023-01-11T05:02:15.475Z,93.19
2023-01-11T05:04:28.122Z,93.23
2023-01-11T05:06:40.894Z,93.11
2023-01-11T05:08:53.473Z,93.32
2023-01-11T05:11:07.992Z,93.21
2023-01-11T05:13:21.548Z,93.43
2023-01-11T05:15:34.827Z,93.34
2023-01-11T05:17:47.403Z,93.24
2023-01-11T05:19:59.941Z,93.52
2023-01-11T05:22:12.667Z,93.24
2023-01-11T05:24:25.216Z,93.14
2023-01-11T05:26:43.969Z,93.07
2023-01-11T05:28:59.184Z,93.04
2023-01-11T05:31:12.912Z,93.11
2023-01-11T05:33:25.512Z,92.56
2023-01-11T05:35:38.000Z,92.74
2023-01-11T05:37:50.555Z,92.68
2023-01-11T05:40:03.467Z,92.34
2023-01-11T05:42:16.756Z,92.32
2023-01-11T05:44:47.663Z,92.24
2023-01-11T05:47:00.370Z,91.99
2023-01-11T05:49:14.312Z,91.86
2023-01-11T05:51:30.603Z,91.56
2023-01-11T05:53:43.801Z,91.64
2023-01-11T05:55:58.521Z,91.63
2023-01-11T05:58:11.075Z,91.31
2023-01-11T06:00:24.238Z,91.06
2023-01-11T06:02:37.623Z,90.91
2023-01-11T06:04:50.356Z,90.79
2023-01-11T06:07:02.993Z,90.57
2023-01-11T06:09:15.619Z,90.83
2023-01-11T06:11:28.378Z,90.32
2023-01-11T06:13:40.995Z,90.29
2023-01-11T06:16:01.450Z,90.16
2023-01-11T06:18:14.612Z,90.10
2023-01-11T06:20:27.135Z,90.01
2023-01-11T06:22:39.711Z,89.82
2023-01-11T06:24:52.237Z,90.12
2023-01-11T06:27:04.880Z,89.67
2023-01-11T06:29:17.510Z,89.98
2023-01-11T06:31:30.037Z,89.79
2023-01-11T06:33:42.717Z,89.64
2023-01-11T06:35:56.546Z,89.93
2023-01-11T06:38:13.786Z,89.61
2023-01-11T06:40:26.345Z,89.52
2023-01-11T06:42:38.940Z,89.64
2023-01-11T06:44:51.458Z,89.62
2023-01-11T06:47:04.123Z,89.24
2023-01-11T06:49:16.736Z,89.21
2023-01-11T06:51:29.282Z,89.58
2023-01-11T06:53:43.259Z,89.02
2023-01-11T06:55:58.404Z,89.18
2023-01-11T06:58:11.386Z,88.78
2023-01-11T07:00:24.868Z,88.70
2023-01-11T07:02:37.502Z,88.69
2023-01-11T07:04:50.160Z,88.39
2023-01-11T07:07:02.747Z,87.86
2023-01-11T07:09:15.280Z,87.79
2023-01-11T07:11:27.889Z,87.37
2023-01-11T07:13:40.384Z,87.28
2023-01-11T07:15:57.415Z,86.77
2023-01-11T07:18:12.853Z,86.42
2023-01-11T07:20:25.928Z,86.16
2023-01-11T07:22:38.531Z,85.80
2023-01-11T07:24:51.895Z,85.49
2023-01-11T07:27:05.230Z,85.34
2023-01-11T07:29:17.852Z,84.95
2023-01-11T07:31:30.549Z,84.37
2023-01-11T07:33:43.153Z,84.40
2023-01-11T07:35:55.778Z,83.73
2023-01-11T07:38:10.173Z,83.58
2023-01-11T07:40:22.720Z,83.60
2023-01-11T07:42:54.119Z,82.84
2023-01-11T07:45:07.290Z,82.50
2023-01-11T07:47:19.865Z,81.98
2023-01-11T07:49:32.425Z,81.68
2023-01-11T07:51:45.003Z,81.37
2023-01-11T07:53:57.536Z,81.15
2023-01-11T07:56:10.104Z,80.75
2023-01-11T07:58:23.586Z,80.51
2023-01-11T08:00:36.218Z,80.23
2023-01-11T08:02:52.969Z,80.02
2023-01-11T08:05:06.109Z,79.29
2023-01-11T08:07:18.667Z,78.85
2023-01-11T08:09:31.820Z,78.78
2023-01-11T08:12:03.085Z,78.40
2023-01-11T08:14:35.431Z,78.65
2023-01-11T08:16:48.006Z,78.18
2023-01-11T08:19:01.562Z,78.16
2023-01-11T08:21:14.925Z,77.49
2023-01-11T08:23:27.577Z,77.34
2023-01-11T08:25:40.526Z,76.84
2023-01-11T08:27:53.103Z,76.40
2023-01-11T08:30:06.405Z,76.58
2023-01-11T08:32:19.007Z,75.99
2023-01-11T08:34:33.761Z,76.06
2023-01-11T08:36:47.093Z,75.73
2023-01-11T08:38:59.686Z,75.67
2023-01-11T08:41:12.265Z,75.48
2023-01-11T08:43:24.936Z,74.87
2023-01-11T08:45:37.592Z,74.84
2023-01-11T08:47:51.820Z,74.31
2023-01-11T08:50:05.364Z,74.53
2023-01-11T08:52:18.286Z,74.54
2023-01-11T08:54:30.869Z,74.07
2023-01-11T08:56:43.580Z,73.48
2023-01-11T08:58:56.151Z,72.88
2023-01-11T09:01:09.663Z,72.91
2023-01-11T09:03:22.316Z,72.66
2023-01-11T09:05:34.829Z,72.46
2023-01-11T09:07:47.409Z,72.67
2023-01-11T09:10:00.010Z,72.71
2023-01-11T09:12:12.964Z,72.58
2023-01-11T09:14:27.543Z,72.40
2023-01-11T09:16:40.166Z,71.47
2023-01-11T09:18:52.809Z,71.80
2023-01-11T09:21:05.447Z,71.82
2023-01-11T09:23:18.090Z,71.55
2023-01-11T09:25:30.724Z,71.08
2023-01-11T09:27:48.385Z,70.98
2023-01-11T09:30:02.691Z,70.98
2023-01-11T09:32:15.217Z,71.02
2023-01-11T09:34:27.885Z,70.88
2023-01-11T09:36:40.741Z,70.43
2023-01-11T09:38:56.822Z,69.99
2023-01-11T09:41:26.810Z,69.79
2023-01-11T09:43:50.101Z,69.63
2023-01-11T09:46:08.490Z,69.87
2023-01-11T09:48:47.971Z,69.78
2023-01-11T09:51:01.537Z,69.96
2023-01-11T09:53:38.193Z,69.85
2023-01-11T09:55:52.852Z,69.84
2023-01-11T09:58:32.747Z,69.73
2023-01-11T10:01:13.505Z,69.77
2023-01-11T10:03:48.930Z,69.58
2023-01-11T10:06:15.045Z,69.30
2023-01-11T10:18:33.079Z,68.44
2023-01-11T10:18:33.080Z,67.36
2023-01-11T10:19:47.813Z,67.90
2023-01-11T10:22:15.617Z,67.49
2023-01-11T10:24:37.406Z,67.67
2023-01-11T10:26:53.392Z,67.44
2023-01-11T10:29:14.768Z,67.09
2023-01-11T10:31:49.321Z,66.71
2023-01-11T10:34:04.227Z,66.74
2023-01-11T10:36:40.766Z,66.35
2023-01-11T10:39:29.684Z,66.36
2023-01-11T10:41:57.360Z,66.05
2023-01-11T10:44:10.045Z,65.91
2023-01-11T10:46:26.189Z,65.63
2023-01-11T10:48:40.443Z,65.24
2023-01-11T10:51:24.915Z,65.04
2023-01-11T10:54:14.303Z,65.50
2023-01-11T10:57:04.664Z,65.27
2023-01-11T10:59:30.386Z,64.98
2023-01-11T11:01:54.321Z,64.79
2023-01-11T11:04:15.712Z,64.85
2023-01-11T11:06:44.112Z,64.37
2023-01-11T11:09:14.454Z,64.56
2023-01-11T11:11:37.901Z,64.71
2023-01-11T11:14:13.140Z,64.67
2023-01-11T11:16:37.987Z,64.86
2023-01-11T11:18:52.554Z,64.51
2023-01-11T11:21:16.229Z,64.64
2023-01-11T11:23:29.223Z,64.82
2023-01-11T11:25:45.164Z,64.17
2023-01-11T11:28:05.002Z,63.95
2023-01-11T11:30:38.975Z,63.68
2023-01-11T11:32:56.623Z,63.26
2023-01-11T11:35:32.565Z,62.81
2023-01-11T11:37:45.674Z,63.06
2023-01-11T11:39:58.239Z,63.01
2023-01-11T11:42:17.716Z,62.97
2023-01-11T11:44:30.328Z,62.59
2023-01-11T11:46:56.450Z,63.03
2023-01-11T11:49:16.842Z,62.32
2023-01-11T11:51:29.504Z,62.17
2023-01-11T11:53:48.108Z,62.01
2023-01-11T11:56:25.328Z,61.88
2023-01-11T11:58:40.972Z,61.83
2023-01-11T12:00:53.853Z,61.89
2023-01-11T12:03:15.801Z,61.77
2023-01-11T12:05:28.745Z,61.78
2023-01-11T12:07:55.099Z,61.91
2023-01-11T12:10:32.122Z,61.97
2023-01-11T12:12:55.518Z,62.10
2023-01-11T12:15:23.481Z,62.30
2023-01-11T12:17:36.950Z,62.16
2023-01-11T12:19:49.551Z,62.30
2023-01-11T12:22:19.283Z,62.30
2023-01-11T12:24:33.819Z,62.35
2023-01-11T12:27:11.522Z,62.18
2023-01-11T12:29:34.461Z,62.07
2023-01-11T12:32:08.802Z,62.24
2023-01-11T12:34:24.140Z,62.41
2023-01-11T12:37:15.767Z,62.46
2023-01-11T12:39:38.880Z,62.72
2023-01-11T12:42:16.474Z,62.67
2023-01-11T12:44:57.889Z,63.18
2023-01-11T12:47:42.239Z,63.19
2023-01-11T12:50:09.425Z,63.36
2023-01-11T12:52:59.010Z,63.34
2023-01-11T12:55:48.458Z,63.87
2023-01-11T12:58:09.758Z,64.08
2023-01-11T13:00:43.841Z,64.24
2023-01-11T13:03:34.143Z,64.42
2023-01-11T13:06:01.739Z,64.86
2023-01-11T13:08:41.643Z,65.14
2023-01-11T13:11:34.688Z,64.89
2023-01-11T13:14:03.560Z,64.87
2023-01-11T13:16:39.382Z,65.13
2023-01-11T13:19:14.934Z,65.65
2023-01-11T13:21:33.105Z,65.81
2023-01-11T13:23:54.746Z,65.83
2023-01-11T13:26:27.896Z,66.05
2023-01-11T13:28:44.078Z,66.17
2023-01-11T13:30:58.717Z,66.41
2023-01-11T13:33:19.636Z,66.42
2023-01-11T13:35:32.179Z,66.32
2023-01-11T13:37:52.066Z,66.45
2023-01-11T13:40:35.497Z,66.48
2023-01-11T13:42:57.623Z,66.58
2023-01-11T13:45:23.834Z,66.78
2023-01-11T13:47:47.140Z,66.80
2023-01-11T13:50:20.524Z,66.98
2023-01-11T13:52:41.934Z,66.96
2023-01-11T13:55:25.956Z,67.37
2023-01-11T13:58:02.628Z,67.59
2023-01-11T14:00:23.830Z,68.05
2023-01-11T14:02:45.858Z,67.96
2023-01-11T14:05:03.450Z,68.41
2023-01-11T14:07:44.100Z,68.63
2023-01-11T14:10:13.835Z,68.68
2023-01-11T14:13:06.129Z,68.80
2023-01-11T14:15:26.356Z,68.97
2023-01-11T14:18:11.278Z,69.11
2023-01-11T14:20:48.639Z,69.32
2023-01-11T14:23:17.915Z,69.47
2023-01-11T14:26:06.203Z,69.53
2023-01-11T14:28:33.770Z,69.62
2023-01-11T14:31:04.429Z,69.64
2023-01-11T14:33:49.598Z,69.74
2023-01-11T14:36:26.139Z,69.98
2023-01-11T14:39:02.494Z,70.12
2023-01-11T14:41:37.703Z,70.37
2023-01-11T14:44:15.588Z,70.46
2023-01-11T14:46:51.103Z,70.56
2023-01-11T14:49:51.259Z,70.77
2023-01-11T14:52:09.720Z,71.07
2023-01-11T14:54:30.358Z,71.41
2023-01-11T14:56:42.875Z,71.46
2023-01-11T14:59:03.869Z,71.71
2023-01-11T15:01:16.513Z,71.91
2023-01-11T15:03:39.607Z,72.05
2023-01-11T15:06:01.292Z,72.23
2023-01-11T15:08:13.755Z,72.46
2023-01-11T15:10:29.302Z,72.58
2023-01-11T15:12:41.890Z,72.94
2023-01-11T15:15:02.870Z,73.04
2023-01-11T15:17:38.779Z,73.18
2023-01-11T15:19:53.215Z,73.55
2023-01-11T15:22:06.947Z,73.72
2023-01-11T15:24:31.845Z,74.03
2023-01-11T15:26:49.569Z,74.17
2023-01-11T15:29:02.788Z,74.44
2023-01-11T15:31:34.376Z,74.79
2023-01-11T15:33:48.764Z,74.75
2023-01-11T15:36:03.612Z,75.28
2023-01-11T15:38:21.822Z,75.34
2023-01-11T15:40:40.071Z,75.68
2023-01-11T15:43:38.878Z,75.86
2023-01-11T15:46:29.413Z,75.91
2023-01-11T15:48:53.945Z,76.19
2023-01-11T15:51:12.453Z,76.48
2023-01-11T15:53:30.801Z,76.60
2023-01-11T15:56:24.381Z,76.63
2023-01-11T15:58:45.789Z,76.60
2023-01-11T16:00:58.320Z,77.02
2023-01-11T16:03:30.321Z,77.15
2023-01-11T16:05:53.407Z,77.15
2023-01-11T16:08:31.106Z,77.32
2023-01-11T16:10:57.404Z,77.57
2023-01-11T16:13:41.852Z,77.79
2023-01-11T16:16:17.481Z,77.93
2023-01-11T16:18:36.970Z,78.17
2023-01-11T16:21:03.611Z,78.35
2023-01-11T16:23:20.833Z,78.54
2023-01-11T16:25:38.716Z,78.89
2023-01-11T16:27:53.892Z,78.92
2023-01-11T16:30:14.691Z,79.11
2023-01-11T16:32:32.716Z,79.27
2023-01-11T16:34:50.186Z,79.64
2023-01-11T16:37:31.528Z,79.76
2023-01-11T16:39:44.458Z,79.97
2023-01-11T16:42:06.120Z,80.02
2023-01-11T16:44:28.304Z,80.29
2023-01-11T16:46:47.134Z,80.42
2023-01-11T16:49:09.512Z,80.74
2023-01-11T16:51:22.422Z,80.63
2023-01-11T16:53:40.486Z,80.99
2023-01-11T16:56:14.100Z,81.24
2023-01-11T16:58:29.113Z,81.14
2023-01-11T17:00:41.968Z,81.51
2023-01-11T17:03:18.246Z,81.57
2023-01-11T17:05:31.125Z,81.52
2023-01-11T17:07:43.748Z,81.96
2023-01-11T17:10:22.922Z,81.98
2023-01-11T17:12:35.540Z,82.09
2023-01-11T17:15:09.675Z,82.39
2023-01-11T17:17:23.310Z,82.37
2023-01-11T17:19:43.171Z,82.57
2023-01-11T17:22:06.419Z,82.61
2023-01-11T17:24:26.063Z,82.71
2023-01-11T17:26:45.786Z,82.79
2023-01-11T17:29:00.186Z,83.00
2023-01-11T17:31:21.947Z,83.14
2023-01-11T17:33:34.518Z,83.18
2023-01-11T17:35:47.168Z,83.27
2023-01-11T17:38:04.949Z,83.36
2023-01-11T17:40:26.145Z,83.41
2023-01-11T17:42:57.174Z,83.53
2023-01-11T17:45:27.800Z,83.46
2023-01-11T17:47:42.931Z,83.51
2023-01-11T17:49:57.366Z,83.58
2023-01-11T17:52:24.386Z,83.75
2023-01-11T17:54:36.971Z,83.63
2023-01-11T17:56:58.205Z,83.84
2023-01-11T17:59:21.569Z,84.00
2023-01-11T18:01:34.355Z,84.11
2023-01-11T18:03:57.947Z,84.04
2023-01-11T18:06:13.417Z,84.16
2023-01-11T18:08:26.019Z,84.36
2023-01-11T18:10:40.176Z,84.40
2023-01-11T18:12:55.737Z,84.31
2023-01-11T18:15:37.516Z,84.53
2023-01-11T18:17:56.809Z,84.59
2023-01-11T18:20:15.518Z,84.67
2023-01-11T18:22:42.672Z,84.75
2023-01-11T18:24:57.194Z,84.98
2023-01-11T18:27:24.235Z,85.01
2023-01-11T18:29:36.962Z,84.95
2023-01-11T18:31:49.718Z,85.18
2023-01-11T18:34:05.546Z,85.06
2023-01-11T18:36:21.626Z,85.41
2023-01-11T18:38:35.782Z,85.40
2023-01-11T18:40:50.742Z,85.42
2023-01-11T18:43:03.505Z,85.62
2023-01-11T18:45:16.696Z,85.59
2023-01-11T18:47:30.334Z,85.55
2023-01-11T18:49:43.703Z,85.76
2023-01-11T18:51:56.272Z,85.82
2023-01-11T18:54:16.739Z,85.88
2023-01-11T18:56:29.375Z,86.01
2023-01-11T18:58:42.540Z,86.16
2023-01-11T19:00:55.176Z,86.28
2023-01-11T19:03:11.379Z,86.27
2023-01-11T19:05:24.358Z,86.46
2023-01-11T19:07:37.292Z,86.44
2023-01-11T19:09:50.142Z,86.39
2023-01-11T19:12:03.138Z,86.42
2023-01-11T19:14:15.867Z,86.46
2023-01-11T19:16:28.439Z,86.45
2023-01-11T19:18:41.262Z,86.27
2023-01-11T19:21:29.861Z,86.34
2023-01-11T19:23:42.390Z,86.31
2023-01-11T19:26:01.142Z,86.33
2023-01-11T19:28:13.913Z,86.42
2023-01-11T19:30:26.742Z,86.63
2023-01-11T19:32:39.439Z,86.73
2023-01-11T19:34:52.911Z,86.98
2023-01-11T19:37:05.742Z,87.34
2023-01-11T19:39:18.627Z,87.59
2023-01-11T19:41:51.389Z,87.90
2023-01-11T19:44:04.130Z,88.35
2023-01-11T19:46:30.147Z,89.05
2023-01-11T19:48:44.198Z,89.49
2023-01-11T19:51:04.991Z,90.26
2023-01-11T19:53:17.779Z,90.68
2023-01-11T19:55:30.660Z,91.36
2023-01-11T19:57:43.516Z,92.12
2023-01-11T19:59:56.332Z,92.86
2023-01-11T20:02:11.375Z,93.61
2023-01-11T20:13:20.489Z,94.28
2023-01-11T20:15:33.336Z,94.04
2023-01-11T20:17:46.107Z,95.50
2023-01-11T20:19:58.625Z,96.76
2023-01-11T20:22:11.360Z,97.11
2023-01-11T20:24:28.317Z,98.05
2023-01-11T20:26:41.980Z,98.54
2023-01-11T20:28:56.641Z,99.00
2023-01-11T20:31:09.636Z,99.79
2023-01-11T20:33:22.501Z,100.00
2023-01-11T20:35:35.230Z,100.00
2023-01-11T20:37:47.965Z,100.00
2023-01-11T20:40:00.541Z,100.00
2023-01-11T20:42:13.386Z,100.00
2023-01-11T20:44:28.019Z,100.00
2023-01-11T20:46:40.616Z,100.00
2023-01-11T20:48:53.495Z,100.00
2023-01-11T20:51:06.131Z,100.00
2023-01-11T20:53:18.660Z,100.00
2023-01-11T20:55:31.302Z,100.00
2023-01-11T20:57:47.770Z,100.00
2023-01-11T21:00:00.513Z,100.00
2023-01-11T21:02:13.682Z,100.00
2023-01-11T21:04:26.437Z,100.00
2023-01-11T21:06:41.739Z,100.00
2023-01-11T21:08:59.160Z,100.00
2023-01-11T21:11:14.112Z,100.00
2023-01-11T21:13:26.692Z,100.00
2023-01-11T21:15:39.411Z,100.00
2023-01-11T21:17:51.969Z,100.00
2023-01-11T21:20:05.648Z,100.00
2023-01-11T21:22:18.243Z,100.00
2023-01-11T21:24:30.957Z,100.00
2023-01-11T21:26:45.821Z,100.00
2023-01-11T21:29:01.071Z,100.00
2023-01-11T21:31:13.965Z,100.00
2023-01-11T21:33:27.044Z,100.00
2023-01-11T21:35:39.547Z,100.00
2023-01-11T21:37:52.273Z,100.00
2023-01-11T21:40:05.430Z,100.00
2023-01-11T21:42:18.081Z,100.00
2023-01-11T21:44:33.658Z,100.00
2023-01-11T21:46:46.423Z,100.00
2023-01-11T21:48:59.150Z,100.00
2023-01-11T21:51:11.982Z,100.00
2023-01-11T21:53:28.854Z,100.00
2023-01-11T21:55:41.437Z,100.00
2023-01-11T21:57:53.968Z,100.00
2023-01-11T22:00:07.176Z,100.00
2023-01-11T22:02:19.722Z,100.00
2023-01-11T22:04:32.494Z,100.00
2023-01-11T22:06:50.880Z,100.00
2023-01-11T22:09:04.616Z,100.00
2023-01-11T22:11:17.949Z,100.00
2023-01-11T22:13:32.460Z,100.00
2023-01-11T22:15:45.004Z,100.00
2023-01-11T22:17:57.536Z,100.00
2023-01-11T22:20:10.934Z,100.00
2023-01-11T22:22:23.517Z,100.00
2023-01-11T22:24:36.079Z,100.00
2023-01-11T22:26:48.657Z,100.00
2023-01-11T22:29:15.162Z,100.00
2023-01-11T22:31:29.712Z,100.00
2023-01-11T22:33:42.299Z,100.00
2023-01-11T22:35:55.510Z,100.00
2023-01-11T22:38:08.337Z,100.00
2023-01-11T22:40:20.867Z,100.00
2023-01-11T22:42:33.439Z,100.00
2023-01-11T22:44:45.967Z,100.00
2023-01-11T22:47:00.267Z,100.00
2023-01-11T22:49:13.600Z,100.00
2023-01-11T22:51:26.991Z,100.00
2023-01-11T22:53:40.928Z,100.00
2023-01-11T22:55:53.469Z,100.00
2023-01-11T22:58:05.975Z,100.00
2023-01-11T23:00:18.638Z,100.00
2023-01-11T23:02:31.169Z,100.00
2023-01-11T23:04:43.854Z,100.00
2023-01-11T23:06:57.272Z,100.00
2023-01-11T23:09:15.978Z,100.00
2023-01-11T23:11:50.400Z,100.00
2023-01-11T23:14:05.529Z,100.00
2023-01-11T23:16:22.153Z,100.00
2023-01-11T23:18:34.738Z,100.00
2023-01-11T23:20:47.509Z,100.00
2023-01-11T23:23:00.120Z,100.00
2023-01-11T23:25:12.716Z,100.00
2023-01-11T23:27:25.359Z,100.00
2023-01-11T23:29:38.012Z,100.00
2023-01-11T23:31:50.785Z,100.00
2023-01-11T23:34:03.716Z,100.00
2023-01-11T23:36:18.622Z,100.00
2023-01-11T23:38:32.650Z,100.00
2023-01-11T23:41:17.517Z,100.00
2023-01-11T23:43:30.139Z,100.00
2023-01-11T23:45:42.778Z,100.00
2023-01-11T23:47:55.336Z,100.00
2023-01-11T23:50:08.536Z,100.00
2023-01-11T23:52:24.237Z,100.00
2023-01-11T23:54:36.766Z,100.00
2023-01-11T23:56:49.293Z,100.00
2023-01-11T23:59:03.081Z,100.00
